sensor_id;sensor_type;location;lat;lon;timestamp;temperature;humidity
20654;DHT22;21083;50.898;4.902;2022-07-22T00:01:44;17.50;99.90
20654;DHT22;21083;50.898;4.902;2022-07-22T00:04:11;17.50;99.90
20654;DHT22;21083;50.898;4.902;2022-07-22T00:06:38;17.40;99.90
20654;DHT22;21083;50.898;4.902;2022-07-22T00:09:05;17.40;99.90
20654;DHT22;21083;50.898;4.902;2022-07-22T00:11:32;17.40;99.90
20654;DHT22;21083;50.898;4.902;2022-07-22T00:13:59;17.30;99.90
20654;DHT22;21083;50.898;4.902;2022-07-22T00:16:26;17.30;99.90
20654;DHT22;21083;50.898;4.902;2022-07-22T00:18:54;17.30;99.90
20654;DHT22;21083;50.898;4.902;2022-07-22T00:21:21;17.20;99.90
20654;DHT22;21083;50.898;4.902;2022-07-22T00:23:48;17.20;99.90
20654;DHT22;21083;50.898;4.902;2022-07-22T00:26:15;17.20;99.90
20654;DHT22;21083;50.898;4.902;2022-07-22T00:28:42;17.20;99.90
20654;DHT22;21083;50.898;4.902;2022-07-22T00:31:09;17.20;99.90
20654;DHT22;21083;50.898;4.902;2022-07-22T00:33:36;17.10;99.90
20654;DHT22;21083;50.898;4.902;2022-07-22T00:36:05;17.10;99.90
20654;DHT22;21083;50.898;4.902;2022-07-22T00:38:32;17.20;99.90
20654;DHT22;21083;50.898;4.902;2022-07-22T00:40:59;17.20;99.90
20654;DHT22;21083;50.898;4.902;2022-07-22T00:43:27;17.10;99.90
20654;DHT22;21083;50.898;4.902;2022-07-22T00:45:54;17.00;99.90
20654;DHT22;21083;50.898;4.902;2022-07-22T00:48:21;16.90;99.90
20654;DHT22;21083;50.898;4.902;2022-07-22T00:50:48;17.00;99.90
20654;DHT22;21083;50.898;4.902;2022-07-22T00:53:16;17.00;99.90
20654;DHT22;21083;50.898;4.902;2022-07-22T00:55:44;17.00;99.90
20654;DHT22;21083;50.898;4.902;2022-07-22T00:58:11;17.00;99.90
20654;DHT22;21083;50.898;4.902;2022-07-22T01:00:38;17.00;99.90
20654;DHT22;21083;50.898;4.902;2022-07-22T01:03:05;17.00;99.90
20654;DHT22;21083;50.898;4.902;2022-07-22T01:05:31;17.00;99.90
20654;DHT22;21083;50.898;4.902;2022-07-22T01:07:58;17.00;99.90
20654;DHT22;21083;50.898;4.902;2022-07-22T01:10:27;16.90;99.90
20654;DHT22;21083;50.898;4.902;2022-07-22T01:12:53;16.90;99.90
20654;DHT22;21083;50.898;4.902;2022-07-22T01:15:20;16.80;99.90
20654;DHT22;21083;50.898;4.902;2022-07-22T01:17:47;16.80;99.90
20654;DHT22;21083;50.898;4.902;2022-07-22T01:20:17;16.80;99.90
20654;DHT22;21083;50.898;4.902;2022-07-22T01:22:44;16.80;99.90
20654;DHT22;21083;50.898;4.902;2022-07-22T01:25:11;16.80;99.90
20654;DHT22;21083;50.898;4.902;2022-07-22T01:27:38;16.70;99.90
20654;DHT22;21083;50.898;4.902;2022-07-22T01:30:06;16.70;99.90
20654;DHT22;21083;50.898;4.902;2022-07-22T01:32:33;16.60;99.90
20654;DHT22;21083;50.898;4.902;2022-07-22T01:35:00;16.60;99.90
20654;DHT22;21083;50.898;4.902;2022-07-22T01:37:28;16.60;99.90
20654;DHT22;21083;50.898;4.902;2022-07-22T01:39:55;16.60;99.90
20654;DHT22;21083;50.898;4.902;2022-07-22T01:42:22;16.50;99.90
20654;DHT22;21083;50.898;4.902;2022-07-22T01:44:49;16.50;99.90
20654;DHT22;21083;50.898;4.902;2022-07-22T01:47:16;16.50;99.90
20654;DHT22;21083;50.898;4.902;2022-07-22T01:49:43;16.50;99.90
20654;DHT22;21083;50.898;4.902;2022-07-22T01:52:10;16.50;99.90
20654;DHT22;21083;50.898;4.902;2022-07-22T01:54:38;16.50;99.90
20654;DHT22;21083;50.898;4.902;2022-07-22T01:57:05;16.50;99.90
20654;DHT22;21083;50.898;4.902;2022-07-22T01:59:32;16.50;99.90
20654;DHT22;21083;50.898;4.902;2022-07-22T02:01:59;16.50;99.90
20654;DHT22;21083;50.898;4.902;2022-07-22T02:04:26;16.40;99.90
20654;DHT22;21083;50.898;4.902;2022-07-22T02:06:53;16.40;99.90
20654;DHT22;21083;50.898;4.902;2022-07-22T02:09:20;16.40;99.90
20654;DHT22;21083;50.898;4.902;2022-07-22T02:11:48;16.40;99.90
20654;DHT22;21083;50.898;4.902;2022-07-22T02:14:15;16.30;99.90
20654;DHT22;21083;50.898;4.902;2022-07-22T02:16:42;16.30;99.90
20654;DHT22;21083;50.898;4.902;2022-07-22T02:19:09;16.30;99.90
20654;DHT22;21083;50.898;4.902;2022-07-22T02:21:36;16.40;99.90
20654;DHT22;21083;50.898;4.902;2022-07-22T02:24:04;16.40;99.90
20654;DHT22;21083;50.898;4.902;2022-07-22T02:26:31;16.40;99.90
20654;DHT22;21083;50.898;4.902;2022-07-22T02:28:59;16.40;99.90
20654;DHT22;21083;50.898;4.902;2022-07-22T02:31:26;16.30;99.90
20654;DHT22;21083;50.898;4.902;2022-07-22T02:33:53;16.30;99.90
20654;DHT22;21083;50.898;4.902;2022-07-22T02:36:20;16.20;99.90
20654;DHT22;21083;50.898;4.902;2022-07-22T02:38:47;16.30;99.90
20654;DHT22;21083;50.898;4.902;2022-07-22T02:41:14;16.20;99.90
20654;DHT22;21083;50.898;4.902;2022-07-22T02:43:41;16.10;99.90
20654;DHT22;21083;50.898;4.902;2022-07-22T02:46:09;16.20;99.90
20654;DHT22;21083;50.898;4.902;2022-07-22T02:48:36;16.10;99.90
20654;DHT22;21083;50.898;4.902;2022-07-22T02:51:03;16.10;99.90
20654;DHT22;21083;50.898;4.902;2022-07-22T02:53:30;16.10;99.90
20654;DHT22;21083;50.898;4.902;2022-07-22T02:55:57;16.10;99.90
20654;DHT22;21083;50.898;4.902;2022-07-22T02:58:24;16.10;99.90
20654;DHT22;21083;50.898;4.902;2022-07-22T03:00:51;16.10;99.90
20654;DHT22;21083;50.898;4.902;2022-07-22T03:03:19;16.10;99.90
20654;DHT22;21083;50.898;4.902;2022-07-22T03:05:46;16.20;99.90
20654;DHT22;21083;50.898;4.902;2022-07-22T03:08:13;16.20;99.90
20654;DHT22;21083;50.898;4.902;2022-07-22T03:10:40;16.20;99.90
20654;DHT22;21083;50.898;4.902;2022-07-22T03:13:07;16.10;99.90
20654;DHT22;21083;50.898;4.902;2022-07-22T03:15:34;16.00;99.90
20654;DHT22;21083;50.898;4.902;2022-07-22T03:18:01;15.80;99.90
20654;DHT22;21083;50.898;4.902;2022-07-22T03:20:29;15.70;99.90
20654;DHT22;21083;50.898;4.902;2022-07-22T03:22:56;15.70;99.90
20654;DHT22;21083;50.898;4.902;2022-07-22T03:25:23;15.80;99.90
20654;DHT22;21083;50.898;4.902;2022-07-22T03:27:50;15.90;99.90
20654;DHT22;21083;50.898;4.902;2022-07-22T03:30:17;15.90;99.90
20654;DHT22;21083;50.898;4.902;2022-07-22T03:32:44;15.90;99.90
20654;DHT22;21083;50.898;4.902;2022-07-22T03:35:12;15.90;99.90
20654;DHT22;21083;50.898;4.902;2022-07-22T03:37:40;16.00;99.90
20654;DHT22;21083;50.898;4.902;2022-07-22T03:40:09;15.90;99.90
20654;DHT22;21083;50.898;4.902;2022-07-22T03:42:36;15.90;99.90
20654;DHT22;21083;50.898;4.902;2022-07-22T03:45:03;15.90;99.90
20654;DHT22;21083;50.898;4.902;2022-07-22T03:47:30;15.90;99.90
20654;DHT22;21083;50.898;4.902;2022-07-22T03:49:57;15.90;99.90
20654;DHT22;21083;50.898;4.902;2022-07-22T03:52:24;15.90;99.90
20654;DHT22;21083;50.898;4.902;2022-07-22T03:54:53;15.80;99.90
20654;DHT22;21083;50.898;4.902;2022-07-22T03:57:20;15.70;99.90
20654;DHT22;21083;50.898;4.902;2022-07-22T03:59:47;15.70;99.90
20654;DHT22;21083;50.898;4.902;2022-07-22T04:02:14;15.70;99.90
20654;DHT22;21083;50.898;4.902;2022-07-22T04:04:41;15.60;99.90
20654;DHT22;21083;50.898;4.902;2022-07-22T04:07:08;15.40;99.90
20654;DHT22;21083;50.898;4.902;2022-07-22T04:09:35;15.50;99.90
20654;DHT22;21083;50.898;4.902;2022-07-22T04:12:04;15.40;99.90
20654;DHT22;21083;50.898;4.902;2022-07-22T04:14:31;15.40;99.90
20654;DHT22;21083;50.898;4.902;2022-07-22T04:16:58;15.40;99.90
20654;DHT22;21083;50.898;4.902;2022-07-22T04:19:24;15.50;99.90
20654;DHT22;21083;50.898;4.902;2022-07-22T04:21:51;15.60;99.90
20654;DHT22;21083;50.898;4.902;2022-07-22T04:24:18;15.60;99.90
20654;DHT22;21083;50.898;4.902;2022-07-22T04:26:45;15.60;99.90
20654;DHT22;21083;50.898;4.902;2022-07-22T04:29:13;15.60;99.90
20654;DHT22;21083;50.898;4.902;2022-07-22T04:31:40;15.60;99.90
20654;DHT22;21083;50.898;4.902;2022-07-22T04:34:07;15.60;99.90
20654;DHT22;21083;50.898;4.902;2022-07-22T04:36:34;15.70;99.90
20654;DHT22;21083;50.898;4.902;2022-07-22T04:39:01;15.60;99.90
20654;DHT22;21083;50.898;4.902;2022-07-22T04:41:28;15.70;99.90
20654;DHT22;21083;50.898;4.902;2022-07-22T04:43:55;15.70;99.90
20654;DHT22;21083;50.898;4.902;2022-07-22T04:46:23;15.70;99.90
20654;DHT22;21083;50.898;4.902;2022-07-22T04:48:50;15.80;99.90
20654;DHT22;21083;50.898;4.902;2022-07-22T04:51:17;15.80;99.90
20654;DHT22;21083;50.898;4.902;2022-07-22T04:53:44;15.80;99.90
20654;DHT22;21083;50.898;4.902;2022-07-22T04:56:11;15.80;99.90
20654;DHT22;21083;50.898;4.902;2022-07-22T04:58:37;15.80;99.90
20654;DHT22;21083;50.898;4.902;2022-07-22T05:01:04;15.80;99.90
20654;DHT22;21083;50.898;4.902;2022-07-22T05:03:33;15.80;99.90
20654;DHT22;21083;50.898;4.902;2022-07-22T05:06:00;15.80;99.90
20654;DHT22;21083;50.898;4.902;2022-07-22T05:08:27;15.80;99.90
20654;DHT22;21083;50.898;4.902;2022-07-22T05:10:54;15.80;99.90
20654;DHT22;21083;50.898;4.902;2022-07-22T05:13:20;15.90;99.90
20654;DHT22;21083;50.898;4.902;2022-07-22T05:15:47;15.90;99.90
20654;DHT22;21083;50.898;4.902;2022-07-22T05:18:15;16.00;99.90
20654;DHT22;21083;50.898;4.902;2022-07-22T05:20:43;16.00;99.90
20654;DHT22;21083;50.898;4.902;2022-07-22T05:23:10;16.00;99.90
20654;DHT22;21083;50.898;4.902;2022-07-22T05:25:37;16.10;99.90
20654;DHT22;21083;50.898;4.902;2022-07-22T05:28:04;16.10;99.90
20654;DHT22;21083;50.898;4.902;2022-07-22T05:30:31;16.10;99.90
20654;DHT22;21083;50.898;4.902;2022-07-22T05:32:58;16.20;99.90
20654;DHT22;21083;50.898;4.902;2022-07-22T05:35:25;16.20;99.90
20654;DHT22;21083;50.898;4.902;2022-07-22T05:37:54;16.30;99.90
20654;DHT22;21083;50.898;4.902;2022-07-22T05:40:21;16.40;99.90
20654;DHT22;21083;50.898;4.902;2022-07-22T05:42:48;16.40;99.90
20654;DHT22;21083;50.898;4.902;2022-07-22T05:45:15;16.40;99.90
20654;DHT22;21083;50.898;4.902;2022-07-22T05:47:42;16.50;99.90
20654;DHT22;21083;50.898;4.902;2022-07-22T05:50:09;16.50;99.90
20654;DHT22;21083;50.898;4.902;2022-07-22T05:52:36;16.60;99.90
20654;DHT22;21083;50.898;4.902;2022-07-22T05:55:06;16.60;99.90
20654;DHT22;21083;50.898;4.902;2022-07-22T05:57:33;16.70;99.90
20654;DHT22;21083;50.898;4.902;2022-07-22T06:00:00;16.80;99.90
20654;DHT22;21083;50.898;4.902;2022-07-22T06:02:27;16.90;99.90
20654;DHT22;21083;50.898;4.902;2022-07-22T06:04:54;16.90;99.90
20654;DHT22;21083;50.898;4.902;2022-07-22T06:07:21;17.10;99.90
20654;DHT22;21083;50.898;4.902;2022-07-22T06:09:48;17.10;99.90
20654;DHT22;21083;50.898;4.902;2022-07-22T06:12:18;17.10;99.90
20654;DHT22;21083;50.898;4.902;2022-07-22T06:14:45;17.10;99.90
20654;DHT22;21083;50.898;4.902;2022-07-22T06:17:12;17.30;99.90
20654;DHT22;21083;50.898;4.902;2022-07-22T06:19:39;17.30;99.90
20654;DHT22;21083;50.898;4.902;2022-07-22T06:22:06;17.30;99.90
20654;DHT22;21083;50.898;4.902;2022-07-22T06:24:33;17.40;99.90
20654;DHT22;21083;50.898;4.902;2022-07-22T06:27:00;17.50;99.90
20654;DHT22;21083;50.898;4.902;2022-07-22T06:29:29;17.60;99.90
20654;DHT22;21083;50.898;4.902;2022-07-22T06:31:56;17.70;99.90
20654;DHT22;21083;50.898;4.902;2022-07-22T06:34:24;17.80;99.90
20654;DHT22;21083;50.898;4.902;2022-07-22T06:36:51;17.90;99.90
20654;DHT22;21083;50.898;4.902;2022-07-22T06:39:18;18.00;99.90
20654;DHT22;21083;50.898;4.902;2022-07-22T06:41:45;18.00;99.90
20654;DHT22;21083;50.898;4.902;2022-07-22T06:44:12;18.10;99.90
20654;DHT22;21083;50.898;4.902;2022-07-22T06:46:40;18.20;99.90
20654;DHT22;21083;50.898;4.902;2022-07-22T06:49:07;18.30;99.90
20654;DHT22;21083;50.898;4.902;2022-07-22T06:51:34;18.30;99.90
20654;DHT22;21083;50.898;4.902;2022-07-22T06:54:01;18.50;99.90
20654;DHT22;21083;50.898;4.902;2022-07-22T06:56:28;18.60;99.90
20654;DHT22;21083;50.898;4.902;2022-07-22T06:58:55;18.70;99.90
20654;DHT22;21083;50.898;4.902;2022-07-22T07:01:22;18.90;99.90
20654;DHT22;21083;50.898;4.902;2022-07-22T07:03:50;19.00;99.90
20654;DHT22;21083;50.898;4.902;2022-07-22T07:06:17;19.10;99.90
20654;DHT22;21083;50.898;4.902;2022-07-22T07:08:44;19.30;99.90
20654;DHT22;21083;50.898;4.902;2022-07-22T07:11:11;19.40;99.90
20654;DHT22;21083;50.898;4.902;2022-07-22T07:13:38;19.60;99.90
20654;DHT22;21083;50.898;4.902;2022-07-22T07:16:05;19.60;99.90
20654;DHT22;21083;50.898;4.902;2022-07-22T07:18:32;19.80;99.90
20654;DHT22;21083;50.898;4.902;2022-07-22T07:21:01;19.90;99.90
20654;DHT22;21083;50.898;4.902;2022-07-22T07:23:27;20.00;99.90
20654;DHT22;21083;50.898;4.902;2022-07-22T07:25:54;19.90;99.90
20654;DHT22;21083;50.898;4.902;2022-07-22T07:28:21;19.90;99.90
20654;DHT22;21083;50.898;4.902;2022-07-22T07:30:48;19.90;99.90
20654;DHT22;21083;50.898;4.902;2022-07-22T07:33:15;20.00;99.90
20654;DHT22;21083;50.898;4.902;2022-07-22T07:35:42;20.20;99.90
20654;DHT22;21083;50.898;4.902;2022-07-22T07:38:10;20.30;99.90
20654;DHT22;21083;50.898;4.902;2022-07-22T07:40:37;20.60;99.90
20654;DHT22;21083;50.898;4.902;2022-07-22T07:43:04;20.70;99.90
20654;DHT22;21083;50.898;4.902;2022-07-22T07:45:31;21.00;99.90
20654;DHT22;21083;50.898;4.902;2022-07-22T07:47:59;21.30;99.90
20654;DHT22;21083;50.898;4.902;2022-07-22T07:50:26;21.50;99.90
20654;DHT22;21083;50.898;4.902;2022-07-22T07:52:53;21.60;99.90
20654;DHT22;21083;50.898;4.902;2022-07-22T07:55:21;21.40;99.90
20654;DHT22;21083;50.898;4.902;2022-07-22T07:57:49;21.30;99.90
20654;DHT22;21083;50.898;4.902;2022-07-22T08:00:17;21.30;99.90
20654;DHT22;21083;50.898;4.902;2022-07-22T08:02:46;21.40;99.90
20654;DHT22;21083;50.898;4.902;2022-07-22T08:05:12;21.40;99.90
20654;DHT22;21083;50.898;4.902;2022-07-22T08:07:40;21.40;99.90
20654;DHT22;21083;50.898;4.902;2022-07-22T08:10:07;21.70;99.90
20654;DHT22;21083;50.898;4.902;2022-07-22T08:12:36;21.80;99.90
20654;DHT22;21083;50.898;4.902;2022-07-22T08:15:04;21.90;99.90
20654;DHT22;21083;50.898;4.902;2022-07-22T08:17:33;22.00;99.90
20654;DHT22;21083;50.898;4.902;2022-07-22T08:20:00;22.00;99.90
20654;DHT22;21083;50.898;4.902;2022-07-22T08:22:27;22.00;99.90
20654;DHT22;21083;50.898;4.902;2022-07-22T08:24:54;21.90;99.90
20654;DHT22;21083;50.898;4.902;2022-07-22T08:27:21;21.80;99.90
20654;DHT22;21083;50.898;4.902;2022-07-22T08:29:49;21.80;99.90
20654;DHT22;21083;50.898;4.902;2022-07-22T08:32:16;21.50;99.90
20654;DHT22;21083;50.898;4.902;2022-07-22T08:34:43;21.50;99.90
20654;DHT22;21083;50.898;4.902;2022-07-22T08:37:10;21.40;99.90
20654;DHT22;21083;50.898;4.902;2022-07-22T08:39:37;21.40;99.90
20654;DHT22;21083;50.898;4.902;2022-07-22T08:42:04;21.50;99.90
20654;DHT22;21083;50.898;4.902;2022-07-22T08:44:32;21.50;99.90
20654;DHT22;21083;50.898;4.902;2022-07-22T08:47:01;21.70;99.90
20654;DHT22;21083;50.898;4.902;2022-07-22T08:49:28;21.70;99.90
20654;DHT22;21083;50.898;4.902;2022-07-22T08:51:54;21.80;99.90
20654;DHT22;21083;50.898;4.902;2022-07-22T08:54:21;21.90;99.90
20654;DHT22;21083;50.898;4.902;2022-07-22T08:56:49;22.00;99.90
20654;DHT22;21083;50.898;4.902;2022-07-22T08:59:17;22.10;99.90
20654;DHT22;21083;50.898;4.902;2022-07-22T09:02:05;22.00;99.90
20654;DHT22;21083;50.898;4.902;2022-07-22T09:04:32;22.00;99.90
20654;DHT22;21083;50.898;4.902;2022-07-22T09:07:26;22.00;99.90
20654;DHT22;21083;50.898;4.902;2022-07-22T09:09:54;22.10;99.90
20654;DHT22;21083;50.898;4.902;2022-07-22T09:12:21;22.20;99.90
20654;DHT22;21083;50.898;4.902;2022-07-22T09:14:50;22.40;99.90
20654;DHT22;21083;50.898;4.902;2022-07-22T09:17:30;22.60;99.90
20654;DHT22;21083;50.898;4.902;2022-07-22T09:19:59;22.90;99.90
20654;DHT22;21083;50.898;4.902;2022-07-22T09:22:34;23.10;99.90
20654;DHT22;21083;50.898;4.902;2022-07-22T09:25:18;23.40;99.90
20654;DHT22;21083;50.898;4.902;2022-07-22T09:27:45;23.80;99.90
20654;DHT22;21083;50.898;4.902;2022-07-22T09:30:14;24.20;99.90
20654;DHT22;21083;50.898;4.902;2022-07-22T09:32:44;24.40;99.90
20654;DHT22;21083;50.898;4.902;2022-07-22T09:35:11;24.30;99.90
20654;DHT22;21083;50.898;4.902;2022-07-22T09:37:47;24.30;99.90
20654;DHT22;21083;50.898;4.902;2022-07-22T09:40:15;24.10;99.90
20654;DHT22;21083;50.898;4.902;2022-07-22T09:42:47;24.00;99.90
20654;DHT22;21083;50.898;4.902;2022-07-22T09:45:14;24.00;99.90
20654;DHT22;21083;50.898;4.902;2022-07-22T09:47:44;24.10;99.90
20654;DHT22;21083;50.898;4.902;2022-07-22T09:50:16;24.20;99.90
20654;DHT22;21083;50.898;4.902;2022-07-22T09:52:44;24.40;99.90
20654;DHT22;21083;50.898;4.902;2022-07-22T09:55:13;24.40;99.90
20654;DHT22;21083;50.898;4.902;2022-07-22T09:57:40;24.40;99.90
20654;DHT22;21083;50.898;4.902;2022-07-22T10:00:08;24.20;99.90
20654;DHT22;21083;50.898;4.902;2022-07-22T10:02:39;24.20;99.90
20654;DHT22;21083;50.898;4.902;2022-07-22T10:05:09;24.20;99.90
20654;DHT22;21083;50.898;4.902;2022-07-22T10:07:38;24.30;99.90
20654;DHT22;21083;50.898;4.902;2022-07-22T10:10:06;24.40;99.90
20654;DHT22;21083;50.898;4.902;2022-07-22T10:12:36;24.60;99.90
20654;DHT22;21083;50.898;4.902;2022-07-22T10:15:04;24.70;99.90
20654;DHT22;21083;50.898;4.902;2022-07-22T10:17:34;24.80;99.90
20654;DHT22;21083;50.898;4.902;2022-07-22T10:20:02;25.00;99.90
20654;DHT22;21083;50.898;4.902;2022-07-22T10:22:51;25.20;99.90
20654;DHT22;21083;50.898;4.902;2022-07-22T10:25:19;25.50;99.90
20654;DHT22;21083;50.898;4.902;2022-07-22T10:27:49;25.60;99.90
20654;DHT22;21083;50.898;4.902;2022-07-22T10:30:17;25.70;99.90
20654;DHT22;21083;50.898;4.902;2022-07-22T10:32:45;25.80;99.90
20654;DHT22;21083;50.898;4.902;2022-07-22T10:35:22;25.90;99.90
20654;DHT22;21083;50.898;4.902;2022-07-22T10:37:55;26.20;99.90
20654;DHT22;21083;50.898;4.902;2022-07-22T10:40:24;26.30;99.90
20654;DHT22;21083;50.898;4.902;2022-07-22T10:43:05;26.30;99.90
20654;DHT22;21083;50.898;4.902;2022-07-22T10:45:37;26.50;99.90
20654;DHT22;21083;50.898;4.902;2022-07-22T10:48:05;26.50;99.90
20654;DHT22;21083;50.898;4.902;2022-07-22T10:50:52;26.60;99.90
20654;DHT22;21083;50.898;4.902;2022-07-22T10:53:24;26.80;99.90
20654;DHT22;21083;50.898;4.902;2022-07-22T10:56:04;26.80;99.90
20654;DHT22;21083;50.898;4.902;2022-07-22T11:01:31;26.90;99.90
20654;DHT22;21083;50.898;4.902;2022-07-22T11:04:12;26.90;99.90
20654;DHT22;21083;50.898;4.902;2022-07-22T11:06:40;27.10;99.90
20654;DHT22;21083;50.898;4.902;2022-07-22T11:09:10;27.30;99.90
20654;DHT22;21083;50.898;4.902;2022-07-22T11:11:40;27.40;99.90
20654;DHT22;21083;50.898;4.902;2022-07-22T11:14:12;27.60;99.90
20654;DHT22;21083;50.898;4.902;2022-07-22T11:16:40;27.70;99.90
20654;DHT22;21083;50.898;4.902;2022-07-22T11:19:07;27.60;99.90
20654;DHT22;21083;50.898;4.902;2022-07-22T11:21:34;27.60;99.90
20654;DHT22;21083;50.898;4.902;2022-07-22T11:24:05;27.50;99.90
20654;DHT22;21083;50.898;4.902;2022-07-22T11:26:37;27.30;99.90
20654;DHT22;21083;50.898;4.902;2022-07-22T11:29:06;27.30;99.90
20654;DHT22;21083;50.898;4.902;2022-07-22T11:31:33;27.60;99.90
20654;DHT22;21083;50.898;4.902;2022-07-22T11:34:07;27.60;99.90
20654;DHT22;21083;50.898;4.902;2022-07-22T11:36:36;27.50;99.90
20654;DHT22;21083;50.898;4.902;2022-07-22T11:39:04;27.50;99.90
20654;DHT22;21083;50.898;4.902;2022-07-22T11:41:31;27.70;99.90
20654;DHT22;21083;50.898;4.902;2022-07-22T11:44:00;27.70;99.90
20654;DHT22;21083;50.898;4.902;2022-07-22T11:46:28;27.60;99.90
20654;DHT22;21083;50.898;4.902;2022-07-22T11:49:00;27.60;99.90
20654;DHT22;21083;50.898;4.902;2022-07-22T11:51:29;27.60;99.90
20654;DHT22;21083;50.898;4.902;2022-07-22T11:53:57;27.70;99.90
20654;DHT22;21083;50.898;4.902;2022-07-22T11:56:24;27.80;99.90
20654;DHT22;21083;50.898;4.902;2022-07-22T11:58:52;27.70;99.90
20654;DHT22;21083;50.898;4.902;2022-07-22T12:01:23;27.80;99.90
20654;DHT22;21083;50.898;4.902;2022-07-22T12:03:51;27.80;99.90
20654;DHT22;21083;50.898;4.902;2022-07-22T12:06:21;27.80;99.90
20654;DHT22;21083;50.898;4.902;2022-07-22T12:08:50;27.80;99.90
20654;DHT22;21083;50.898;4.902;2022-07-22T12:11:18;27.80;99.90
20654;DHT22;21083;50.898;4.902;2022-07-22T12:13:48;27.90;99.90
20654;DHT22;21083;50.898;4.902;2022-07-22T12:16:22;27.90;99.90
20654;DHT22;21083;50.898;4.902;2022-07-22T12:18:58;28.00;99.90
20654;DHT22;21083;50.898;4.902;2022-07-22T12:21:27;28.10;99.90
20654;DHT22;21083;50.898;4.902;2022-07-22T12:23:56;28.20;99.90
20654;DHT22;21083;50.898;4.902;2022-07-22T12:26:54;28.30;99.90
20654;DHT22;21083;50.898;4.902;2022-07-22T12:29:23;28.30;99.90
20654;DHT22;21083;50.898;4.902;2022-07-22T12:31:53;28.30;99.90
20654;DHT22;21083;50.898;4.902;2022-07-22T12:34:32;28.40;99.90
20654;DHT22;21083;50.898;4.902;2022-07-22T12:37:00;28.50;99.90
20654;DHT22;21083;50.898;4.902;2022-07-22T12:39:28;28.50;99.90
20654;DHT22;21083;50.898;4.902;2022-07-22T12:41:56;28.50;99.90
20654;DHT22;21083;50.898;4.902;2022-07-22T12:44:24;28.40;99.90
20654;DHT22;21083;50.898;4.902;2022-07-22T12:46:55;28.20;99.90
20654;DHT22;21083;50.898;4.902;2022-07-22T12:49:23;28.20;99.90
20654;DHT22;21083;50.898;4.902;2022-07-22T12:52:07;28.50;99.90
20654;DHT22;21083;50.898;4.902;2022-07-22T12:54:35;28.50;99.90
20654;DHT22;21083;50.898;4.902;2022-07-22T12:57:03;28.60;99.90
20654;DHT22;21083;50.898;4.902;2022-07-22T12:59:30;28.80;99.90
20654;DHT22;21083;50.898;4.902;2022-07-22T13:01:59;28.90;99.90
20654;DHT22;21083;50.898;4.902;2022-07-22T13:04:26;29.00;99.90
20654;DHT22;21083;50.898;4.902;2022-07-22T13:06:53;29.30;99.90
20654;DHT22;21083;50.898;4.902;2022-07-22T13:09:20;29.30;99.90
20654;DHT22;21083;50.898;4.902;2022-07-22T13:11:47;29.40;99.90
20654;DHT22;21083;50.898;4.902;2022-07-22T13:14:15;29.60;99.90
20654;DHT22;21083;50.898;4.902;2022-07-22T13:16:42;29.40;99.90
20654;DHT22;21083;50.898;4.902;2022-07-22T13:19:10;29.40;99.90
20654;DHT22;21083;50.898;4.902;2022-07-22T13:21:37;29.10;99.90
20654;DHT22;21083;50.898;4.902;2022-07-22T13:24:04;29.20;99.90
20654;DHT22;21083;50.898;4.902;2022-07-22T13:26:31;29.20;99.90
20654;DHT22;21083;50.898;4.902;2022-07-22T13:28:58;29.20;99.90
20654;DHT22;21083;50.898;4.902;2022-07-22T13:31:25;29.00;99.90
20654;DHT22;21083;50.898;4.902;2022-07-22T13:33:53;28.90;99.90
20654;DHT22;21083;50.898;4.902;2022-07-22T13:36:21;28.70;99.90
20654;DHT22;21083;50.898;4.902;2022-07-22T13:38:49;28.50;99.90
20654;DHT22;21083;50.898;4.902;2022-07-22T13:41:17;28.30;99.90
20654;DHT22;21083;50.898;4.902;2022-07-22T13:43:44;28.40;99.90
20654;DHT22;21083;50.898;4.902;2022-07-22T13:46:12;28.40;99.90
20654;DHT22;21083;50.898;4.902;2022-07-22T13:48:39;28.60;99.90
20654;DHT22;21083;50.898;4.902;2022-07-22T13:51:06;28.90;99.90
20654;DHT22;21083;50.898;4.902;2022-07-22T13:53:34;29.20;99.90
20654;DHT22;21083;50.898;4.902;2022-07-22T13:56:02;29.30;99.90
20654;DHT22;21083;50.898;4.902;2022-07-22T13:58:29;29.60;99.90
20654;DHT22;21083;50.898;4.902;2022-07-22T14:00:56;29.80;99.90
20654;DHT22;21083;50.898;4.902;2022-07-22T14:03:23;29.80;99.90
20654;DHT22;21083;50.898;4.902;2022-07-22T14:05:51;29.80;99.90
20654;DHT22;21083;50.898;4.902;2022-07-22T14:08:18;29.70;99.90
20654;DHT22;21083;50.898;4.902;2022-07-22T14:10:46;29.80;99.90
20654;DHT22;21083;50.898;4.902;2022-07-22T14:13:13;29.80;99.90
20654;DHT22;21083;50.898;4.902;2022-07-22T14:15:40;29.40;99.90
20654;DHT22;21083;50.898;4.902;2022-07-22T14:18:07;29.20;99.90
20654;DHT22;21083;50.898;4.902;2022-07-22T14:20:34;29.10;99.90
20654;DHT22;21083;50.898;4.902;2022-07-22T14:23:02;29.00;99.90
20654;DHT22;21083;50.898;4.902;2022-07-22T14:25:31;28.90;99.90
20654;DHT22;21083;50.898;4.902;2022-07-22T14:28:00;28.80;99.90
20654;DHT22;21083;50.898;4.902;2022-07-22T14:30:26;29.30;99.90
20654;DHT22;21083;50.898;4.902;2022-07-22T14:32:55;29.50;99.90
20654;DHT22;21083;50.898;4.902;2022-07-22T14:35:22;29.50;99.90
20654;DHT22;21083;50.898;4.902;2022-07-22T14:37:49;29.70;99.90
20654;DHT22;21083;50.898;4.902;2022-07-22T14:40:16;29.60;99.90
20654;DHT22;21083;50.898;4.902;2022-07-22T14:42:43;29.40;99.90
20654;DHT22;21083;50.898;4.902;2022-07-22T14:45:11;29.50;99.90
20654;DHT22;21083;50.898;4.902;2022-07-22T14:47:38;29.30;99.90
20654;DHT22;21083;50.898;4.902;2022-07-22T14:50:06;29.20;99.90
20654;DHT22;21083;50.898;4.902;2022-07-22T14:52:33;29.00;99.90
20654;DHT22;21083;50.898;4.902;2022-07-22T14:55:01;28.60;99.90
20654;DHT22;21083;50.898;4.902;2022-07-22T14:57:28;28.50;99.90
20654;DHT22;21083;50.898;4.902;2022-07-22T14:59:55;28.60;99.90
20654;DHT22;21083;50.898;4.902;2022-07-22T15:02:23;28.30;99.90
20654;DHT22;21083;50.898;4.902;2022-07-22T15:04:51;28.30;99.90
20654;DHT22;21083;50.898;4.902;2022-07-22T15:07:17;28.30;99.90
20654;DHT22;21083;50.898;4.902;2022-07-22T15:09:44;28.30;99.90
20654;DHT22;21083;50.898;4.902;2022-07-22T15:12:11;28.20;99.90
20654;DHT22;21083;50.898;4.902;2022-07-22T15:14:38;28.10;99.90
20654;DHT22;21083;50.898;4.902;2022-07-22T15:17:05;28.10;99.90
20654;DHT22;21083;50.898;4.902;2022-07-22T15:19:33;28.00;99.90
20654;DHT22;21083;50.898;4.902;2022-07-22T15:22:00;27.90;99.90
20654;DHT22;21083;50.898;4.902;2022-07-22T15:24:27;28.00;99.90
20654;DHT22;21083;50.898;4.902;2022-07-22T15:26:54;28.00;99.90
20654;DHT22;21083;50.898;4.902;2022-07-22T15:29:21;28.00;99.90
20654;DHT22;21083;50.898;4.902;2022-07-22T15:31:48;28.10;99.90
20654;DHT22;21083;50.898;4.902;2022-07-22T15:34:15;28.10;99.90
20654;DHT22;21083;50.898;4.902;2022-07-22T15:36:43;28.10;99.90
20654;DHT22;21083;50.898;4.902;2022-07-22T15:39:11;28.00;99.90